sensor_id;sensor_type;location;lat;lon;timestamp;P1;durP1;ratioP1;P2;durP2;ratioP2
81160;SDS011;70637;48.514;14.500;2024-01-30T00:01:53;4.05;;;2.28;;
81160;SDS011;70637;48.514;14.500;2024-01-30T00:04:18;3.97;;;2.25;;
81160;SDS011;70637;48.514;14.500;2024-01-30T00:06:44;3.67;;;2.15;;
81160;SDS011;70637;48.514;14.500;2024-01-30T00:09:10;3.15;;;1.90;;
81160;SDS011;70637;48.514;14.500;2024-01-30T00:11:36;3.33;;;1.83;;
81160;SDS011;70637;48.514;14.500;2024-01-30T00:14:03;3.47;;;1.98;;
81160;SDS011;70637;48.514;14.500;2024-01-30T00:16:29;3.78;;;1.83;;
81160;SDS011;70637;48.514;14.500;2024-01-30T00:18:55;4.05;;;2.00;;
81160;SDS011;70637;48.514;14.500;2024-01-30T00:21:21;3.10;;;2.05;;
81160;SDS011;70637;48.514;14.500;2024-01-30T00:23:48;2.83;;;2.03;;
81160;SDS011;70637;48.514;14.500;2024-01-30T00:26:14;2.83;;;2.10;;
81160;SDS011;70637;48.514;14.500;2024-01-30T00:28:40;3.42;;;2.00;;
81160;SDS011;70637;48.514;14.500;2024-01-30T00:31:07;2.90;;;2.08;;
81160;SDS011;70637;48.514;14.500;2024-01-30T00:33:33;2.58;;;1.85;;
81160;SDS011;70637;48.514;14.500;2024-01-30T00:35:58;3.13;;;2.13;;
81160;SDS011;70637;48.514;14.500;2024-01-30T00:38:24;5.00;;;1.92;;
81160;SDS011;70637;48.514;14.500;2024-01-30T00:40:50;3.53;;;1.75;;
81160;SDS011;70637;48.514;14.500;2024-01-30T00:43:15;2.72;;;1.83;;
81160;SDS011;70637;48.514;14.500;2024-01-30T00:45:43;3.00;;;1.80;;
81160;SDS011;70637;48.514;14.500;2024-01-30T00:48:08;3.38;;;1.88;;
81160;SDS011;70637;48.514;14.500;2024-01-30T00:50:34;3.88;;;2.10;;
81160;SDS011;70637;48.514;14.500;2024-01-30T00:53:00;3.30;;;2.03;;
81160;SDS011;70637;48.514;14.500;2024-01-30T00:55:26;4.18;;;1.75;;
81160;SDS011;70637;48.514;14.500;2024-01-30T00:57:51;3.15;;;2.10;;
81160;SDS011;70637;48.514;14.500;2024-01-30T01:00:17;3.20;;;1.98;;
81160;SDS011;70637;48.514;14.500;2024-01-30T01:02:43;2.85;;;1.98;;
81160;SDS011;70637;48.514;14.500;2024-01-30T01:05:09;4.15;;;2.00;;
81160;SDS011;70637;48.514;14.500;2024-01-30T01:07:34;3.05;;;1.80;;
81160;SDS011;70637;48.514;14.500;2024-01-30T01:10:01;3.45;;;1.80;;
81160;SDS011;70637;48.514;14.500;2024-01-30T01:12:27;2.70;;;2.08;;
81160;SDS011;70637;48.514;14.500;2024-01-30T01:14:53;2.67;;;1.85;;
81160;SDS011;70637;48.514;14.500;2024-01-30T01:17:18;3.85;;;2.15;;
81160;SDS011;70637;48.514;14.500;2024-01-30T01:19:44;2.63;;;1.77;;
81160;SDS011;70637;48.514;14.500;2024-01-30T01:22:10;2.38;;;1.70;;
81160;SDS011;70637;48.514;14.500;2024-01-30T01:24:36;3.63;;;2.10;;
81160;SDS011;70637;48.514;14.500;2024-01-30T01:27:02;2.90;;;1.85;;
81160;SDS011;70637;48.514;14.500;2024-01-30T01:29:28;2.22;;;1.65;;
81160;SDS011;70637;48.514;14.500;2024-01-30T01:31:56;3.13;;;1.90;;
81160;SDS011;70637;48.514;14.500;2024-01-30T01:34:23;2.50;;;1.95;;
81160;SDS011;70637;48.514;14.500;2024-01-30T01:36:49;3.97;;;1.90;;
81160;SDS011;70637;48.514;14.500;2024-01-30T01:39:16;2.83;;;1.88;;
81160;SDS011;70637;48.514;14.500;2024-01-30T01:41:42;2.85;;;1.70;;
81160;SDS011;70637;48.514;14.500;2024-01-30T01:44:08;3.50;;;1.85;;
81160;SDS011;70637;48.514;14.500;2024-01-30T01:46:34;3.78;;;1.80;;
81160;SDS011;70637;48.514;14.500;2024-01-30T01:49:00;2.40;;;1.75;;
81160;SDS011;70637;48.514;14.500;2024-01-30T01:51:28;2.17;;;1.55;;
81160;SDS011;70637;48.514;14.500;2024-01-30T01:53:56;2.83;;;1.90;;
81160;SDS011;70637;48.514;14.500;2024-01-30T01:56:23;2.25;;;1.58;;
81160;SDS011;70637;48.514;14.500;2024-01-30T01:58:50;2.30;;;1.70;;
81160;SDS011;70637;48.514;14.500;2024-01-30T02:01:19;3.40;;;2.03;;
81160;SDS011;70637;48.514;14.500;2024-01-30T02:03:46;3.58;;;1.85;;
81160;SDS011;70637;48.514;14.500;2024-01-30T02:06:12;2.95;;;1.90;;
81160;SDS011;70637;48.514;14.500;2024-01-30T02:08:39;3.05;;;2.00;;
81160;SDS011;70637;48.514;14.500;2024-01-30T02:11:05;3.22;;;1.80;;
81160;SDS011;70637;48.514;14.500;2024-01-30T02:13:31;3.08;;;1.70;;
81160;SDS011;70637;48.514;14.500;2024-01-30T02:15:57;2.85;;;1.90;;
81160;SDS011;70637;48.514;14.500;2024-01-30T02:18:22;3.53;;;2.05;;
81160;SDS011;70637;48.514;14.500;2024-01-30T02:20:48;3.35;;;1.63;;
81160;SDS011;70637;48.514;14.500;2024-01-30T02:23:15;2.40;;;1.67;;
81160;SDS011;70637;48.514;14.500;2024-01-30T02:25:41;3.05;;;1.70;;
81160;SDS011;70637;48.514;14.500;2024-01-30T02:28:11;2.47;;;1.55;;
81160;SDS011;70637;48.514;14.500;2024-01-30T02:30:37;2.92;;;1.73;;
81160;SDS011;70637;48.514;14.500;2024-01-30T02:33:09;3.13;;;1.88;;
81160;SDS011;70637;48.514;14.500;2024-01-30T02:35:34;2.70;;;1.75;;
81160;SDS011;70637;48.514;14.500;2024-01-30T02:38:00;2.65;;;1.80;;
81160;SDS011;70637;48.514;14.500;2024-01-30T02:40:26;3.55;;;2.00;;
81160;SDS011;70637;48.514;14.500;2024-01-30T02:42:52;3.50;;;1.88;;
81160;SDS011;70637;48.514;14.500;2024-01-30T02:45:18;3.17;;;1.95;;
81160;SDS011;70637;48.514;14.500;2024-01-30T02:47:43;2.13;;;1.70;;
81160;SDS011;70637;48.514;14.500;2024-01-30T02:50:09;2.90;;;1.70;;
81160;SDS011;70637;48.514;14.500;2024-01-30T02:52:35;2.35;;;1.70;;
81160;SDS011;70637;48.514;14.500;2024-01-30T02:55:01;2.90;;;1.70;;
81160;SDS011;70637;48.514;14.500;2024-01-30T02:57:27;2.08;;;1.60;;
81160;SDS011;70637;48.514;14.500;2024-01-30T02:59:53;2.30;;;1.52;;
81160;SDS011;70637;48.514;14.500;2024-01-30T03:02:19;2.75;;;1.70;;
81160;SDS011;70637;48.514;14.500;2024-01-30T03:04:45;3.47;;;1.90;;
81160;SDS011;70637;48.514;14.500;2024-01-30T03:07:11;2.63;;;1.73;;
81160;SDS011;70637;48.514;14.500;2024-01-30T03:09:36;3.03;;;1.80;;
81160;SDS011;70637;48.514;14.500;2024-01-30T03:12:03;2.72;;;1.55;;
81160;SDS011;70637;48.514;14.500;2024-01-30T03:14:32;3.13;;;1.90;;
81160;SDS011;70637;48.514;14.500;2024-01-30T03:16:57;2.67;;;1.70;;
81160;SDS011;70637;48.514;14.500;2024-01-30T03:19:23;2.20;;;1.80;;
81160;SDS011;70637;48.514;14.500;2024-01-30T03:21:49;3.05;;;1.70;;
81160;SDS011;70637;48.514;14.500;2024-01-30T03:24:15;2.38;;;1.70;;
81160;SDS011;70637;48.514;14.500;2024-01-30T03:26:41;2.70;;;1.80;;
81160;SDS011;70637;48.514;14.500;2024-01-30T03:29:07;2.88;;;1.98;;
81160;SDS011;70637;48.514;14.500;2024-01-30T03:31:33;2.42;;;1.55;;
81160;SDS011;70637;48.514;14.500;2024-01-30T03:33:58;2.20;;;1.60;;
81160;SDS011;70637;48.514;14.500;2024-01-30T03:36:24;2.88;;;1.80;;
81160;SDS011;70637;48.514;14.500;2024-01-30T03:38:49;2.20;;;1.50;;
81160;SDS011;70637;48.514;14.500;2024-01-30T03:41:15;1.95;;;1.63;;
81160;SDS011;70637;48.514;14.500;2024-01-30T03:43:41;2.38;;;1.67;;
81160;SDS011;70637;48.514;14.500;2024-01-30T03:46:07;2.88;;;1.70;;
81160;SDS011;70637;48.514;14.500;2024-01-30T03:48:32;2.08;;;1.58;;
81160;SDS011;70637;48.514;14.500;2024-01-30T03:50:58;2.60;;;1.90;;
81160;SDS011;70637;48.514;14.500;2024-01-30T03:53:24;2.45;;;1.60;;
81160;SDS011;70637;48.514;14.500;2024-01-30T03:55:49;2.40;;;1.70;;
81160;SDS011;70637;48.514;14.500;2024-01-30T03:58:15;3.22;;;1.80;;
81160;SDS011;70637;48.514;14.500;2024-01-30T04:00:41;2.30;;;1.83;;
81160;SDS011;70637;48.514;14.500;2024-01-30T04:03:06;3.35;;;1.98;;
81160;SDS011;70637;48.514;14.500;2024-01-30T04:05:32;2.33;;;1.40;;
81160;SDS011;70637;48.514;14.500;2024-01-30T04:07:58;2.58;;;1.75;;
81160;SDS011;70637;48.514;14.500;2024-01-30T04:10:24;2.20;;;1.50;;
81160;SDS011;70637;48.514;14.500;2024-01-30T04:12:50;2.60;;;1.70;;
81160;SDS011;70637;48.514;14.500;2024-01-30T04:15:16;2.55;;;1.63;;
81160;SDS011;70637;48.514;14.500;2024-01-30T04:17:43;2.67;;;1.60;;
81160;SDS011;70637;48.514;14.500;2024-01-30T04:20:13;2.67;;;1.70;;
81160;SDS011;70637;48.514;14.500;2024-01-30T04:22:43;2.03;;;1.40;;
81160;SDS011;70637;48.514;14.500;2024-01-30T04:25:09;1.60;;;1.30;;
81160;SDS011;70637;48.514;14.500;2024-01-30T04:27:36;2.17;;;1.60;;
81160;SDS011;70637;48.514;14.500;2024-01-30T04:30:01;2.08;;;1.40;;
81160;SDS011;70637;48.514;14.500;2024-01-30T04:32:27;2.25;;;1.70;;
81160;SDS011;70637;48.514;14.500;2024-01-30T04:34:53;1.98;;;1.35;;
81160;SDS011;70637;48.514;14.500;2024-01-30T04:37:18;2.08;;;1.58;;
81160;SDS011;70637;48.514;14.500;2024-01-30T04:39:44;2.15;;;1.60;;
81160;SDS011;70637;48.514;14.500;2024-01-30T04:42:09;1.98;;;1.58;;
81160;SDS011;70637;48.514;14.500;2024-01-30T04:44:35;2.47;;;1.60;;
81160;SDS011;70637;48.514;14.500;2024-01-30T04:47:01;2.42;;;1.58;;
81160;SDS011;70637;48.514;14.500;2024-01-30T04:49:27;2.15;;;1.60;;
81160;SDS011;70637;48.514;14.500;2024-01-30T04:51:54;2.85;;;1.52;;
81160;SDS011;70637;48.514;14.500;2024-01-30T04:54:19;2.55;;;1.30;;
81160;SDS011;70637;48.514;14.500;2024-01-30T04:56:45;3.03;;;1.63;;
81160;SDS011;70637;48.514;14.500;2024-01-30T04:59:11;2.05;;;1.35;;
81160;SDS011;70637;48.514;14.500;2024-01-30T05:01:37;1.80;;;1.40;;
81160;SDS011;70637;48.514;14.500;2024-01-30T05:04:02;2.03;;;1.38;;
81160;SDS011;70637;48.514;14.500;2024-01-30T05:06:28;2.00;;;1.45;;
81160;SDS011;70637;48.514;14.500;2024-01-30T05:08:54;1.95;;;1.45;;
81160;SDS011;70637;48.514;14.500;2024-01-30T05:11:20;1.83;;;1.38;;
81160;SDS011;70637;48.514;14.500;2024-01-30T05:13:46;1.80;;;1.33;;
81160;SDS011;70637;48.514;14.500;2024-01-30T05:16:12;2.45;;;1.42;;
81160;SDS011;70637;48.514;14.500;2024-01-30T05:18:38;1.65;;;1.27;;
81160;SDS011;70637;48.514;14.500;2024-01-30T05:21:05;1.80;;;1.30;;
81160;SDS011;70637;48.514;14.500;2024-01-30T05:23:31;1.90;;;1.27;;
81160;SDS011;70637;48.514;14.500;2024-01-30T05:25:56;2.25;;;1.50;;
81160;SDS011;70637;48.514;14.500;2024-01-30T05:28:22;1.92;;;1.35;;
81160;SDS011;70637;48.514;14.500;2024-01-30T05:30:48;1.77;;;1.27;;
81160;SDS011;70637;48.514;14.500;2024-01-30T05:33:13;1.80;;;1.40;;
81160;SDS011;70637;48.514;14.500;2024-01-30T05:35:39;1.80;;;1.42;;
81160;SDS011;70637;48.514;14.500;2024-01-30T05:38:05;1.80;;;1.20;;
81160;SDS011;70637;48.514;14.500;2024-01-30T05:40:30;1.30;;;1.20;;
81160;SDS011;70637;48.514;14.500;2024-01-30T05:42:56;1.70;;;1.30;;
81160;SDS011;70637;48.514;14.500;2024-01-30T05:45:25;1.98;;;1.30;;
81160;SDS011;70637;48.514;14.500;2024-01-30T05:47:52;1.70;;;1.23;;
81160;SDS011;70637;48.514;14.500;2024-01-30T05:50:18;1.52;;;1.13;;
81160;SDS011;70637;48.514;14.500;2024-01-30T05:52:44;1.80;;;1.30;;
81160;SDS011;70637;48.514;14.500;2024-01-30T05:55:11;2.23;;;1.40;;
81160;SDS011;70637;48.514;14.500;2024-01-30T05:57:37;3.50;;;1.45;;
81160;SDS011;70637;48.514;14.500;2024-01-30T06:00:04;2.65;;;1.83;;
81160;SDS011;70637;48.514;14.500;2024-01-30T06:02:32;3.67;;;1.83;;
81160;SDS011;70637;48.514;14.500;2024-01-30T06:04:58;6.07;;;2.40;;
81160;SDS011;70637;48.514;14.500;2024-01-30T06:07:23;6.00;;;2.22;;
81160;SDS011;70637;48.514;14.500;2024-01-30T06:09:49;6.78;;;3.13;;
81160;SDS011;70637;48.514;14.500;2024-01-30T06:12:15;6.10;;;3.15;;
81160;SDS011;70637;48.514;14.500;2024-01-30T06:14:40;8.95;;;3.22;;
81160;SDS011;70637;48.514;14.500;2024-01-30T06:17:07;6.68;;;3.35;;
81160;SDS011;70637;48.514;14.500;2024-01-30T06:19:33;7.70;;;3.45;;
81160;SDS011;70637;48.514;14.500;2024-01-30T06:21:59;10.73;;;4.18;;
81160;SDS011;70637;48.514;14.500;2024-01-30T06:24:25;9.60;;;4.05;;
81160;SDS011;70637;48.514;14.500;2024-01-30T06:26:51;9.90;;;3.83;;
81160;SDS011;70637;48.514;14.500;2024-01-30T06:29:16;9.00;;;3.65;;
81160;SDS011;70637;48.514;14.500;2024-01-30T06:31:42;9.23;;;3.97;;
81160;SDS011;70637;48.514;14.500;2024-01-30T06:34:08;9.40;;;4.10;;
81160;SDS011;70637;48.514;14.500;2024-01-30T06:36:35;9.68;;;3.80;;
81160;SDS011;70637;48.514;14.500;2024-01-30T06:39:01;12.15;;;4.00;;
81160;SDS011;70637;48.514;14.500;2024-01-30T06:41:27;11.30;;;4.10;;
81160;SDS011;70637;48.514;14.500;2024-01-30T06:43:53;10.98;;;4.40;;
81160;SDS011;70637;48.514;14.500;2024-01-30T06:46:19;15.27;;;4.45;;
81160;SDS011;70637;48.514;14.500;2024-01-30T06:48:45;13.80;;;4.88;;
81160;SDS011;70637;48.514;14.500;2024-01-30T06:51:11;12.63;;;4.63;;
81160;SDS011;70637;48.514;14.500;2024-01-30T06:53:37;15.07;;;4.57;;
81160;SDS011;70637;48.514;14.500;2024-01-30T06:56:03;11.93;;;4.80;;
81160;SDS011;70637;48.514;14.500;2024-01-30T06:58:29;12.63;;;4.70;;
81160;SDS011;70637;48.514;14.500;2024-01-30T07:00:55;12.00;;;4.90;;
81160;SDS011;70637;48.514;14.500;2024-01-30T07:03:21;11.70;;;4.70;;
81160;SDS011;70637;48.514;14.500;2024-01-30T07:05:47;10.70;;;4.82;;
81160;SDS011;70637;48.514;14.500;2024-01-30T07:08:13;10.25;;;4.30;;
81160;SDS011;70637;48.514;14.500;2024-01-30T07:10:42;10.38;;;4.60;;
81160;SDS011;70637;48.514;14.500;2024-01-30T07:13:10;11.50;;;4.47;;
81160;SDS011;70637;48.514;14.500;2024-01-30T07:15:36;11.38;;;4.28;;
81160;SDS011;70637;48.514;14.500;2024-01-30T07:18:02;12.38;;;4.38;;
81160;SDS011;70637;48.514;14.500;2024-01-30T07:20:29;10.85;;;4.15;;
81160;SDS011;70637;48.514;14.500;2024-01-30T07:22:57;15.43;;;4.28;;
81160;SDS011;70637;48.514;14.500;2024-01-30T07:25:23;10.15;;;3.85;;
81160;SDS011;70637;48.514;14.500;2024-01-30T07:27:53;12.73;;;4.57;;
81160;SDS011;70637;48.514;14.500;2024-01-30T07:30:19;13.57;;;4.47;;
81160;SDS011;70637;48.514;14.500;2024-01-30T07:32:46;11.52;;;4.40;;
81160;SDS011;70637;48.514;14.500;2024-01-30T07:35:12;10.43;;;4.10;;
81160;SDS011;70637;48.514;14.500;2024-01-30T07:37:40;11.32;;;4.45;;
81160;SDS011;70637;48.514;14.500;2024-01-30T07:40:06;12.52;;;4.53;;
81160;SDS011;70637;48.514;14.500;2024-01-30T07:42:32;11.27;;;4.00;;
81160;SDS011;70637;48.514;14.500;2024-01-30T07:44:58;11.15;;;4.80;;
81160;SDS011;70637;48.514;14.500;2024-01-30T07:47:25;12.55;;;4.45;;
81160;SDS011;70637;48.514;14.500;2024-01-30T07:49:51;11.95;;;5.18;;
81160;SDS011;70637;48.514;14.500;2024-01-30T07:52:17;13.45;;;4.30;;
81160;SDS011;70637;48.514;14.500;2024-01-30T07:58:25;10.13;;;4.20;;
81160;SDS011;70637;48.514;14.500;2024-01-30T08:00:52;9.75;;;4.20;;
81160;SDS011;70637;48.514;14.500;2024-01-30T08:03:18;11.93;;;4.53;;
81160;SDS011;70637;48.514;14.500;2024-01-30T08:05:44;11.60;;;4.07;;
81160;SDS011;70637;48.514;14.500;2024-01-30T08:08:10;13.27;;;4.43;;
81160;SDS011;70637;48.514;14.500;2024-01-30T08:10:36;10.63;;;4.03;;
81160;SDS011;70637;48.514;14.500;2024-01-30T08:13:01;8.80;;;4.00;;
81160;SDS011;70637;48.514;14.500;2024-01-30T08:15:27;10.75;;;4.10;;
81160;SDS011;70637;48.514;14.500;2024-01-30T08:17:53;9.50;;;4.10;;
81160;SDS011;70637;48.514;14.500;2024-01-30T08:20:23;9.88;;;4.35;;
81160;SDS011;70637;48.514;14.500;2024-01-30T08:22:49;9.52;;;4.40;;
81160;SDS011;70637;48.514;14.500;2024-01-30T08:25:14;11.73;;;4.30;;
81160;SDS011;70637;48.514;14.500;2024-01-30T08:27:40;10.48;;;4.50;;
81160;SDS011;70637;48.514;14.500;2024-01-30T08:30:06;9.25;;;4.32;;
81160;SDS011;70637;48.514;14.500;2024-01-30T08:32:32;17.15;;;4.75;;
81160;SDS011;70637;48.514;14.500;2024-01-30T08:34:58;14.25;;;6.07;;
81160;SDS011;70637;48.514;14.500;2024-01-30T08:37:24;16.08;;;8.32;;
81160;SDS011;70637;48.514;14.500;2024-01-30T08:39:50;15.95;;;8.90;;
81160;SDS011;70637;48.514;14.500;2024-01-30T08:42:15;14.07;;;8.35;;
81160;SDS011;70637;48.514;14.500;2024-01-30T08:44:43;19.55;;;8.30;;
81160;SDS011;70637;48.514;14.500;2024-01-30T08:47:09;14.70;;;8.10;;
81160;SDS011;70637;48.514;14.500;2024-01-30T08:49:34;16.17;;;8.95;;
81160;SDS011;70637;48.514;14.500;2024-01-30T08:52:00;14.20;;;8.00;;
81160;SDS011;70637;48.514;14.500;2024-01-30T08:54:26;14.60;;;9.00;;
81160;SDS011;70637;48.514;14.500;2024-01-30T08:56:51;14.90;;;9.23;;
81160;SDS011;70637;48.514;14.500;2024-01-30T08:59:21;14.75;;;8.85;;
81160;SDS011;70637;48.514;14.500;2024-01-30T09:01:47;12.98;;;8.90;;
81160;SDS011;70637;48.514;14.500;2024-01-30T09:04:12;12.77;;;8.90;;
81160;SDS011;70637;48.514;14.500;2024-01-30T09:06:38;13.15;;;9.15;;
81160;SDS011;70637;48.514;14.500;2024-01-30T09:09:04;14.70;;;9.05;;
81160;SDS011;70637;48.514;14.500;2024-01-30T09:11:30;14.25;;;9.57;;
81160;SDS011;70637;48.514;14.500;2024-01-30T09:13:56;14.73;;;9.15;;
81160;SDS011;70637;48.514;14.500;2024-01-30T09:16:22;17.48;;;9.32;;
81160;SDS011;70637;48.514;14.500;2024-01-30T09:18:47;13.38;;;9.30;;
81160;SDS011;70637;48.514;14.500;2024-01-30T09:21:13;16.48;;;10.57;;
81160;SDS011;70637;48.514;14.500;2024-01-30T09:23:39;14.85;;;9.23;;
81160;SDS011;70637;48.514;14.500;2024-01-30T09:26:04;15.05;;;9.20;;
81160;SDS011;70637;48.514;14.500;2024-01-30T09:28:30;13.80;;;9.00;;
81160;SDS011;70637;48.514;14.500;2024-01-30T09:30:56;13.25;;;8.38;;
81160;SDS011;70637;48.514;14.500;2024-01-30T09:33:21;19.38;;;9.15;;
81160;SDS011;70637;48.514;14.500;2024-01-30T09:35:47;12.13;;;8.70;;
81160;SDS011;70637;48.514;14.500;2024-01-30T09:38:13;12.80;;;8.02;;
81160;SDS011;70637;48.514;14.500;2024-01-30T09:40:38;14.07;;;8.90;;
81160;SDS011;70637;48.514;14.500;2024-01-30T09:43:04;14.85;;;9.20;;
81160;SDS011;70637;48.514;14.500;2024-01-30T09:45:30;16.38;;;9.68;;
81160;SDS011;70637;48.514;14.500;2024-01-30T09:47:59;13.88;;;8.27;;
81160;SDS011;70637;48.514;14.500;2024-01-30T09:50:24;11.60;;;8.55;;
81160;SDS011;70637;48.514;14.500;2024-01-30T09:52:51;13.80;;;8.20;;
81160;SDS011;70637;48.514;14.500;2024-01-30T09:55:20;11.07;;;7.53;;
81160;SDS011;70637;48.514;14.500;2024-01-30T09:57:46;12.57;;;7.93;;
81160;SDS011;70637;48.514;14.500;2024-01-30T10:00:12;11.35;;;7.30;;
81160;SDS011;70637;48.514;14.500;2024-01-30T10:02:38;10.20;;;6.80;;
81160;SDS011;70637;48.514;14.500;2024-01-30T10:05:04;12.55;;;7.50;;
81160;SDS011;70637;48.514;14.500;2024-01-30T10:07:30;9.55;;;6.88;;
81160;SDS011;70637;48.514;14.500;2024-01-30T10:09:56;10.18;;;6.53;;
81160;SDS011;70637;48.514;14.500;2024-01-30T10:12:22;8.68;;;6.30;;
81160;SDS011;70637;48.514;14.500;2024-01-30T10:14:48;8.57;;;6.18;;
81160;SDS011;70637;48.514;14.500;2024-01-30T10:17:14;7.32;;;5.75;;
81160;SDS011;70637;48.514;14.500;2024-01-30T10:19:40;6.65;;;5.05;;
81160;SDS011;70637;48.514;14.500;2024-01-30T10:22:06;6.00;;;4.93;;
81160;SDS011;70637;48.514;14.500;2024-01-30T10:24:35;6.97;;;5.50;;
81160;SDS011;70637;48.514;14.500;2024-01-30T10:27:01;7.10;;;5.20;;
81160;SDS011;70637;48.514;14.500;2024-01-30T10:29:30;6.90;;;5.15;;
81160;SDS011;70637;48.514;14.500;2024-01-30T10:32:03;8.00;;;5.38;;
81160;SDS011;70637;48.514;14.500;2024-01-30T10:34:30;8.20;;;6.03;;
81160;SDS011;70637;48.514;14.500;2024-01-30T10:37:03;9.40;;;5.75;;
81160;SDS011;70637;48.514;14.500;2024-01-30T10:39:37;11.50;;;6.63;;
81160;SDS011;70637;48.514;14.500;2024-01-30T10:42:04;12.43;;;6.75;;
81160;SDS011;70637;48.514;14.500;2024-01-30T10:44:38;10.65;;;6.75;;
81160;SDS011;70637;48.514;14.500;2024-01-30T10:47:16;9.32;;;6.45;;
81160;SDS011;70637;48.514;14.500;2024-01-30T10:49:46;10.00;;;7.00;;
81160;SDS011;70637;48.514;14.500;2024-01-30T10:52:12;11.00;;;7.60;;
81160;SDS011;70637;48.514;14.500;2024-01-30T10:54:40;11.13;;;7.05;;
81160;SDS011;70637;48.514;14.500;2024-01-30T10:57:08;11.75;;;7.22;;
81160;SDS011;70637;48.514;14.500;2024-01-30T10:59:36;9.73;;;6.70;;
81160;SDS011;70637;48.514;14.500;2024-01-30T11:02:02;11.70;;;6.85;;
81160;SDS011;70637;48.514;14.500;2024-01-30T11:04:35;11.35;;;6.32;;
81160;SDS011;70637;48.514;14.500;2024-01-30T11:07:01;11.27;;;7.00;;
81160;SDS011;70637;48.514;14.500;2024-01-30T11:09:29;10.90;;;6.63;;
81160;SDS011;70637;48.514;14.500;2024-01-30T11:11:58;12.85;;;7.10;;
81160;SDS011;70637;48.514;14.500;2024-01-30T11:14:27;10.05;;;6.75;;
81160;SDS011;70637;48.514;14.500;2024-01-30T11:16:58;14.45;;;6.95;;
81160;SDS011;70637;48.514;14.500;2024-01-30T11:19:25;16.02;;;6.70;;
81160;SDS011;70637;48.514;14.500;2024-01-30T11:21:52;12.50;;;7.05;;
81160;SDS011;70637;48.514;14.500;2024-01-30T11:24:21;12.68;;;7.03;;
81160;SDS011;70637;48.514;14.500;2024-01-30T11:26:58;11.98;;;7.03;;
81160;SDS011;70637;48.514;14.500;2024-01-30T11:29:27;11.35;;;7.10;;
81160;SDS011;70637;48.514;14.500;2024-01-30T11:31:57;14.90;;;6.88;;
81160;SDS011;70637;48.514;14.500;2024-01-30T11:34:24;10.60;;;6.65;;
81160;SDS011;70637;48.514;14.500;2024-01-30T11:36:56;12.50;;;6.53;;
81160;SDS011;70637;48.514;14.500;2024-01-30T11:39:29;10.35;;;6.20;;
81160;SDS011;70637;48.514;14.500;2024-01-30T11:41:55;9.77;;;6.28;;
81160;SDS011;70637;48.514;14.500;2024-01-30T11:44:21;11.35;;;6.90;;
81160;SDS011;70637;48.514;14.500;2024-01-30T11:46:50;9.93;;;6.15;;
81160;SDS011;70637;48.514;14.500;2024-01-30T11:49:17;11.65;;;6.40;;
81160;SDS011;70637;48.514;14.500;2024-01-30T11:51:43;9.80;;;6.07;;
81160;SDS011;70637;48.514;14.500;2024-01-30T11:54:14;9.05;;;5.95;;
81160;SDS011;70637;48.514;14.500;2024-01-30T11:56:40;12.35;;;6.13;;
81160;SDS011;70637;48.514;14.500;2024-01-30T11:59:07;11.32;;;5.95;;
81160;SDS011;70637;48.514;14.500;2024-01-30T12:01:33;10.75;;;5.93;;
81160;SDS011;70637;48.514;14.500;2024-01-30T12:03:59;10.35;;;6.25;;
81160;SDS011;70637;48.514;14.500;2024-01-30T12:06:25;11.05;;;6.22;;
81160;SDS011;70637;48.514;14.500;2024-01-30T12:09:00;10.77;;;5.90;;
81160;SDS011;70637;48.514;14.500;2024-01-30T12:11:29;10.88;;;5.60;;
81160;SDS011;70637;48.514;14.500;2024-01-30T12:13:55;10.30;;;5.68;;
81160;SDS011;70637;48.514;14.500;2024-01-30T12:16:21;8.93;;;5.90;;
81160;SDS011;70637;48.514;14.500;2024-01-30T12:18:47;8.07;;;5.38;;
81160;SDS011;70637;48.514;14.500;2024-01-30T12:21:16;7.68;;;5.72;;
81160;SDS011;70637;48.514;14.500;2024-01-30T12:23:42;9.70;;;5.55;;
81160;SDS011;70637;48.514;14.500;2024-01-30T12:26:08;9.82;;;5.72;;
81160;SDS011;70637;48.514;14.500;2024-01-30T12:28:35;9.23;;;5.50;;
81160;SDS011;70637;48.514;14.500;2024-01-30T12:31:01;9.07;;;5.45;;
81160;SDS011;70637;48.514;14.500;2024-01-30T12:33:28;9.10;;;5.72;;
81160;SDS011;70637;48.514;14.500;2024-01-30T12:35:55;9.00;;;5.18;;
81160;SDS011;70637;48.514;14.500;2024-01-30T12:38:22;8.02;;;5.32;;
81160;SDS011;70637;48.514;14.500;2024-01-30T12:40:49;8.38;;;5.32;;
81160;SDS011;70637;48.514;14.500;2024-01-30T12:43:15;7.82;;;5.45;;
81160;SDS011;70637;48.514;14.500;2024-01-30T12:45:41;7.55;;;4.90;;
81160;SDS011;70637;48.514;14.500;2024-01-30T12:48:07;8.90;;;5.38;;
81160;SDS011;70637;48.514;14.500;2024-01-30T12:50:33;9.68;;;5.70;;
81160;SDS011;70637;48.514;14.500;2024-01-30T12:52:59;7.85;;;5.15;;
81160;SDS011;70637;48.514;14.500;2024-01-30T12:55:25;7.38;;;5.22;;
81160;SDS011;70637;48.514;14.500;2024-01-30T12:57:53;8.35;;;5.22;;
81160;SDS011;70637;48.514;14.500;2024-01-30T13:00:19;7.85;;;5.30;;
81160;SDS011;70637;48.514;14.500;2024-01-30T13:02:45;10.45;;;5.40;;
81160;SDS011;70637;48.514;14.500;2024-01-30T13:05:12;8.43;;;5.32;;
81160;SDS011;70637;48.514;14.500;2024-01-30T13:07:38;9.52;;;5.50;;
81160;SDS011;70637;48.514;14.500;2024-01-30T13:10:04;8.30;;;5.03;;
81160;SDS011;70637;48.514;14.500;2024-01-30T13:12:30;8.75;;;5.13;;
81160;SDS011;70637;48.514;14.500;2024-01-30T13:14:57;7.28;;;4.88;;
81160;SDS011;70637;48.514;14.500;2024-01-30T13:17:23;8.43;;;4.97;;
81160;SDS011;70637;48.514;14.500;2024-01-30T13:19:49;7.93;;;4.85;;
81160;SDS011;70637;48.514;14.500;2024-01-30T13:22:15;6.88;;;4.70;;
81160;SDS011;70637;48.514;14.500;2024-01-30T13:24:41;7.80;;;4.82;;
81160;SDS011;70637;48.514;14.500;2024-01-30T13:27:07;6.85;;;4.85;;
81160;SDS011;70637;48.514;14.500;2024-01-30T13:29:33;8.48;;;4.85;;
81160;SDS011;70637;48.514;14.500;2024-01-30T13:31:59;6.18;;;4.20;;
81160;SDS011;70637;48.514;14.500;2024-01-30T13:34:25;9.18;;;5.13;;
81160;SDS011;70637;48.514;14.500;2024-01-30T13:36:50;7.78;;;4.75;;
81160;SDS011;70637;48.514;14.500;2024-01-30T13:39:17;6.47;;;4.63;;
81160;SDS011;70637;48.514;14.500;2024-01-30T13:41:42;7.25;;;4.60;;
81160;SDS011;70637;48.514;14.500;2024-01-30T13:44:08;7.20;;;4.80;;
81160;SDS011;70637;48.514;14.500;2024-01-30T13:46:34;8.25;;;4.95;;
81160;SDS011;70637;48.514;14.500;2024-01-30T13:49:00;7.43;;;5.00;;
81160;SDS011;70637;48.514;14.500;2024-01-30T13:51:26;6.72;;;4.53;;
81160;SDS011;70637;48.514;14.500;2024-01-30T13:53:52;6.30;;;4.60;;
81160;SDS011;70637;48.514;14.500;2024-01-30T13:56:19;7.90;;;5.13;;
81160;SDS011;70637;48.514;14.500;2024-01-30T13:58:45;8.02;;;4.72;;
81160;SDS011;70637;48.514;14.500;2024-01-30T14:01:13;6.75;;;4.72;;
81160;SDS011;70637;48.514;14.500;2024-01-30T14:03:40;6.88;;;4.63;;
81160;SDS011;70637;48.514;14.500;2024-01-30T14:06:06;6.57;;;4.60;;
81160;SDS011;70637;48.514;14.500;2024-01-30T14:08:31;6.28;;;4.38;;
81160;SDS011;70637;48.514;14.500;2024-01-30T14:10:57;7.38;;;4.35;;
81160;SDS011;70637;48.514;14.500;2024-01-30T14:13:23;5.85;;;4.30;;
81160;SDS011;70637;48.514;14.500;2024-01-30T14:15:50;7.05;;;4.30;;
81160;SDS011;70637;48.514;14.500;2024-01-30T14:18:19;5.55;;;4.38;;
81160;SDS011;70637;48.514;14.500;2024-01-30T14:20:44;5.88;;;4.28;;
81160;SDS011;70637;48.514;14.500;2024-01-30T14:23:10;6.82;;;4.75;;
81160;SDS011;70637;48.514;14.500;2024-01-30T14:25:36;7.53;;;4.60;;
81160;SDS011;70637;48.514;14.500;2024-01-30T14:28:01;6.03;;;4.50;;
81160;SDS011;70637;48.514;14.500;2024-01-30T14:30:27;6.10;;;4.55;;